Big Bear Station Historical Data
Daily Summary for May 18, 2019 Units:  English    Metric   Both
Next Day »
Daily Weekly Monthly Yearly Custom
  High: Low: Average:
Temperature: 57.7 °F 28 °F 42.1 °F
Dew Point: 40.2 °F 24.1 °F 32.1 °F
Humidity: 93% 36% 71%
Wind Speed: 11.4mph 0mph 2.3mph
Wind Gust: -999mph - -
Wind- - WNW
Pressure: 23.44 in 23.34 in -
Precipitation: 0 in    
Historical Graphs
 
 
Tabular Data for May 18, 2019
Time Temperature Dew Point Pressure Wind Wind Speed Wind Gust Humidity Rainfall Rate (Hourly)
00:02 32.5 °F 28.5 °F 23.42 in SSW 2.7 mph -999 mph 85% 0.00 in
00:17 31.8 °F 27.5 °F 23.42 in Calm   -999 mph 84% 0.00 in
00:32 32 °F 28 °F 23.42 in SSE 1.7 mph -999 mph 85% 0.00 in
00:48 30.9 °F 26.1 °F 23.42 in Calm   -999 mph 82% 0.00 in
01:03 30.6 °F 26.1 °F 23.42 in Calm   -999 mph 83% 0.00 in
01:18 30.2 °F 25.9 °F 23.42 in Calm   -999 mph 84% 0.00 in
01:33 30.2 °F 25.7 °F 23.41 in Calm   -999 mph 83% 0.00 in
01:48 30 °F 26.3 °F 23.41 in Calm   -999 mph 86% 0.00 in
02:03 29.7 °F 25.7 °F 23.41 in South 1.7 mph -999 mph 85% 0.00 in
02:19 30.2 °F 27.1 °F 23.41 in Calm   -999 mph 88% 0.00 in
02:34 29.5 °F 26.4 °F 23.41 in Calm   -999 mph 88% 0.00 in
02:49 29.5 °F 25.3 °F 23.40 in Calm   -999 mph 84% 0.00 in
03:04 29.1 °F 25.4 °F 23.40 in Calm   -999 mph 86% 0.00 in
03:20 29.1 °F 25.7 °F 23.40 in Calm   -999 mph 87% 0.00 in
03:35 29.3 °F 26.5 °F 23.40 in Calm   -999 mph 89% 0.00 in
03:50 29.3 °F 26.7 °F 23.40 in Calm   -999 mph 90% 0.00 in
04:05 28.9 °F 26.1 °F 23.40 in Calm   -999 mph 89% 0.00 in
04:20 28.9 °F 26.3 °F 23.40 in Calm   -999 mph 90% 0.00 in
04:36 28.6 °F 25.5 °F 23.40 in Calm   -999 mph 88% 0.00 in
04:51 28.4 °F 25 °F 23.40 in Calm   -999 mph 87% 0.00 in
05:06 28.4 °F 24.7 °F 23.40 in Calm   -999 mph 86% 0.00 in
05:21 28 °F 24.1 °F 23.40 in Calm   -999 mph 85% 0.00 in
05:36 28 °F 24.4 °F 23.39 in Calm   -999 mph 86% 0.00 in
05:52 28.2 °F 25.6 °F 23.40 in Calm   -999 mph 90% 0.00 in
06:07 28.8 °F 26.8 °F 23.40 in Calm   -999 mph 92% 0.00 in
06:22 28.9 °F 27.1 °F 23.41 in Calm   -999 mph 93% 0.00 in
06:37 29.3 °F 27.3 °F 23.41 in Calm   -999 mph 92% 0.00 in
06:53 29.5 °F 27.5 °F 23.40 in Calm   -999 mph 92% 0.00 in
07:08 30.9 °F 28.6 °F 23.41 in Calm   -999 mph 91% 0.00 in
07:23 31.1 °F 28.5 °F 23.41 in Calm   -999 mph 90% 0.00 in
07:38 34.2 °F 30.5 °F 23.41 in Calm   -999 mph 86% 0.00 in
07:53 34.2 °F 31.6 °F 23.42 in Calm   -999 mph 90% 0.00 in
08:09 36.5 °F 32.4 °F 23.42 in Calm   -999 mph 85% 0.00 in
08:24 39.4 °F 31.8 °F 23.42 in Calm   -999 mph 74% 0.00 in
08:40 42.4 °F 33.7 °F 23.42 in Calm   -999 mph 71% 0.00 in
08:55 45.5 °F 30.3 °F 23.42 in Calm   -999 mph 55% 0.00 in
09:10 47.5 °F 27.7 °F 23.42 in NNW 3.2 mph -999 mph 46% 0.00 in
09:25 49.5 °F 26.2 °F 23.42 in NW 3.7 mph -999 mph 40% 0.00 in
09:40 51.1 °F 27 °F 23.42 in NW 3.7 mph -999 mph 39% 0.00 in
09:56 51.6 °F 28.1 °F 23.42 in North 2.7 mph -999 mph 40% 0.00 in
10:11 52.3 °F 26.1 °F 23.42 in West 4.7 mph -999 mph 36% 0.00 in
10:26 52.7 °F 27.8 °F 23.42 in SSW 4.7 mph -999 mph 38% 0.00 in
10:42 53.2 °F 31.3 °F 23.42 in NNW 6.3 mph -999 mph 43% 0.00 in
10:57 53.2 °F 35 °F 23.42 in NNW 5.8 mph -999 mph 50% 0.00 in
11:13 54 °F 37.3 °F 23.43 in WNW 4.7 mph -999 mph 53% 0.00 in
11:28 53.6 °F 39.2 °F 23.43 in NNW 5.8 mph -999 mph 58% 0.00 in
11:44 55.2 °F 37.4 °F 23.43 in SW 2.7 mph -999 mph 51% 0.00 in
11:59 56.1 °F 38.2 °F 23.43 in North 5.3 mph -999 mph 51% 0.00 in
12:14 57.4 °F 38.9 °F 23.42 in NNW 5.8 mph -999 mph 50% 0.00 in
12:29 57.4 °F 37.9 °F 23.43 in West 6.8 mph -999 mph 48% 0.00 in
12:44 56.8 °F 37.8 °F 23.43 in WNW 5.3 mph -999 mph 49% 0.00 in
13:00 57.7 °F 40.2 °F 23.44 in NW 5.3 mph -999 mph 52% 0.00 in
13:15 56.7 °F 39.3 °F 23.44 in WNW 5.8 mph -999 mph 52% 0.00 in
13:30 56.1 °F 39.7 °F 23.43 in NNW 4.7 mph -999 mph 54% 0.00 in
13:46 55 °F 38.2 °F 23.43 in NW 8.3 mph -999 mph 53% 0.00 in
14:01 56.3 °F 39.4 °F 23.44 in WNW 3.7 mph -999 mph 53% 0.00 in
14:16 55.8 °F 39.9 °F 23.43 in WNW 4.7 mph -999 mph 55% 0.00 in
14:32 56.7 °F 38.3 °F 23.43 in NW 5.3 mph -999 mph 50% 0.00 in
14:47 55.6 °F 31.6 °F 23.43 in SW 3.2 mph -999 mph 40% 0.00 in
15:03 54.9 °F 33.9 °F 23.43 in NNW 11.4 mph -999 mph 45% 0.00 in
15:18 54.7 °F 31.5 °F 23.42 in NNW 10.4 mph -999 mph 41% 0.00 in
15:33 53.6 °F 31.1 °F 23.42 in NW 4.2 mph -999 mph 42% 0.00 in
15:48 52.5 °F 33.9 °F 23.42 in NNW 2.7 mph -999 mph 49% 0.00 in
16:03 51.8 °F 32.7 °F 23.42 in SSE 2.7 mph -999 mph 48% 0.00 in
16:19 50.7 °F 32.7 °F 23.41 in NW 6.8 mph -999 mph 50% 0.00 in
16:34 50.7 °F 34.2 °F 23.41 in NNE 2.2 mph -999 mph 53% 0.00 in
16:49 50.5 °F 34 °F 23.41 in ESE 3.2 mph -999 mph 53% 0.00 in
17:05 50 °F 33.5 °F 23.41 in Calm   -999 mph 53% 0.00 in
17:20 49.1 °F 34.1 °F 23.41 in Calm   -999 mph 56% 0.00 in
17:35 48.7 °F 33.7 °F 23.40 in West 2.2 mph -999 mph 56% 0.00 in
17:50 47.7 °F 36.1 °F 23.40 in NW 3.7 mph -999 mph 64% 0.00 in
18:05 47.1 °F 36.3 °F 23.39 in NNW 4.2 mph -999 mph 66% 0.00 in
18:21 46.9 °F 36.5 °F 23.39 in NNW 3.2 mph -999 mph 67% 0.00 in
18:36 46 °F 34.1 °F 23.38 in Calm   -999 mph 63% 0.00 in
18:51 45.9 °F 35.2 °F 23.38 in Calm   -999 mph 66% 0.00 in
19:06 45.7 °F 30 °F 23.38 in Calm   -999 mph 54% 0.00 in
19:22 44.6 °F 36.1 °F 23.38 in North 5.8 mph -999 mph 72% 0.00 in
19:37 43.3 °F 38.2 °F 23.38 in Calm   -999 mph 82% 0.00 in
19:52 42.4 °F 37.3 °F 23.38 in Calm   -999 mph 82% 0.00 in
20:08 41.7 °F 36.9 °F 23.37 in NW 2.2 mph -999 mph 83% 0.00 in
20:23 41.2 °F 37.3 °F 23.37 in NNW 3.2 mph -999 mph 86% 0.00 in
20:38 40.6 °F 37 °F 23.37 in Calm   -999 mph 87% 0.00 in
20:54 40.6 °F 36.7 °F 23.37 in NW 2.7 mph -999 mph 86% 0.00 in
21:09 40.8 °F 36.3 °F 23.36 in NNW 2.7 mph -999 mph 84% 0.00 in
21:24 40.8 °F 35.4 °F 23.36 in Calm   -999 mph 81% 0.00 in
21:39 41 °F 35 °F 23.36 in Calm   -999 mph 79% 0.00 in
21:55 41.7 °F 36.9 °F 23.36 in NW 3.2 mph -999 mph 83% 0.00 in
22:10 41.4 °F 36.6 °F 23.35 in Calm   -999 mph 83% 0.00 in
22:26 40.3 °F 35.9 °F 23.34 in South 2.7 mph -999 mph 84% 0.00 in
22:41 39.9 °F 36.3 °F 23.34 in East 2.2 mph -999 mph 87% 0.00 in
22:56 40.1 °F 36.8 °F 23.34 in NNW 3.7 mph -999 mph 88% 0.00 in
23:12 40.3 °F 37.3 °F 23.34 in WNW 2.2 mph -999 mph 89% 0.00 in
23:27 39.9 °F 36.9 °F 23.35 in SSW 4.7 mph -999 mph 89% 0.00 in
23:42 40.6 °F 37.3 °F 23.34 in West 1.7 mph -999 mph 88% 0.00 in
23:57 40.8 °F 37.2 °F 23.34 in NNW 1.7 mph -999 mph 87% 0.00 in
Big Bear CA Weather